KOMN

Details ICAO KOMN (OMN)
Name Ormond Beach Muni
Region United States
Timezone America/New_York (UTC-4.0)
Plans Departing 10
Arriving 12
Stats Elevation 28 ft / 9 m (AMSL)
Location 29.301129° -81.113770°
Runways 2
Magnetic Variation 6.692° W
Sunrise 2018-05-23 10:29:44 UTC / 2018-05-23 06:29:44 Local
Sunset 2018-05-24 00:15:34 UTC / 2018-05-23 20:15:34 Local
Advertisement - Login to hide

Runways

ID Width Length Bearing (true) Bearing (mag) Surface Threshold Offset Overrun Length
08 75 ft / 23 m 3,998 ft / 1,219 m 78.38° 85.07° Asphalt 0 ft / 0 m 0 ft / 0 m
17 98 ft / 30 m 3,715 ft / 1,132 m 168.22° 174.91° Asphalt 0 ft / 0 m 0 ft / 0 m
26 75 ft / 23 m 3,998 ft / 1,219 m 258.38° 265.07° Asphalt 0 ft / 0 m 0 ft / 0 m
35 98 ft / 30 m 3,715 ft / 1,132 m 348.22° 354.91° Asphalt 0 ft / 0 m 0 ft / 0 m

Map

Weather


0- 5 10 15 20 25 30 35+ Temperature / ° C

Clouds and Precipitation
Forecast for 2018-05-23 18:00 UTC. Updated 4 hours ago

Ground ~20,000 ft ~40,000 ft Winds

METAR

KOMN 232047Z 10008G15KT 10SM SKC 28/20 A3006

TAF

Not found

Frequencies

Recorded 118.47 MHz AWOS 3
Ground 121.62 MHz GND/CLNC DEL
Approach 125.80 MHz DAYTONA APP/DEP
Unicom 123.05 MHz UNICOM
Tower 119.07 MHz TWR
Warning: Do not use this data for real-world aviation or navigation. No guarantee of current accuracy is given.